Bridger, Montana
Current Conditions -  °F | °C
As of 7:55 AM on Sunday 21 Dec 2014 (Local Time) from KPOY Reporting Station
Scattered Clouds Scattered Clouds  
Wind Chill: 27°   Ceiling: Unl
Heat Index: 36°   Visibility: 10mi
Dew Point: 28°   Wind: 14mph
Humidity: 75%   Direction: 230°SW
Pressure: 29.48"   Gusts: 24mph
Location:  45.3°N, 108.91°W
Report Text: KPOY 211455Z AUTO 23012G21KT 10SM SCT095 SCT110 02/M02 A2948 RMK AO2
Loading
Personal Weather Stations






























Interactive Weather Map New forecast layout! Learn more

10-Day Weather Forecast

Advertisements
Track Severe Weather on mobile